createdAt,value
2022-09-17T00:01:31.416Z,14.64
2022-09-17T00:04:04.817Z,14.61
2022-09-17T00:06:35.318Z,14.61
2022-09-17T00:09:03.284Z,14.61
2022-09-17T00:11:35.517Z,14.59
2022-09-17T00:14:06.057Z,14.59
2022-09-17T00:16:38.071Z,14.62
2022-09-17T00:19:07.151Z,14.63
2022-09-17T00:21:34.914Z,14.63
2022-09-17T00:24:06.350Z,14.64
2022-09-17T00:26:36.755Z,14.64
2022-09-17T00:29:06.156Z,14.63
2022-09-17T00:31:34.933Z,14.64
2022-09-17T00:34:04.708Z,14.66
2022-09-17T00:36:35.532Z,14.65
2022-09-17T00:39:04.397Z,14.64
2022-09-17T00:41:34.235Z,14.65
2022-09-17T00:44:43.200Z,14.64
2022-09-17T00:47:19.234Z,14.65
2022-09-17T00:49:48.658Z,14.62
2022-09-17T00:52:19.649Z,14.61
2022-09-17T00:54:53.842Z,14.60
2022-09-17T00:57:22.540Z,14.59
2022-09-17T00:59:52.227Z,14.59
2022-09-17T01:02:21.654Z,14.59
2022-09-17T01:04:50.001Z,14.60
2022-09-17T01:07:32.068Z,14.63
2022-09-17T01:10:07.885Z,14.66
2022-09-17T01:12:51.287Z,14.67
2022-09-17T01:15:30.363Z,14.69
2022-09-17T01:18:12.033Z,14.69
2022-09-17T01:21:08.533Z,14.70
2022-09-17T01:24:20.339Z,14.71
2022-09-17T01:27:14.819Z,14.72
2022-09-17T01:30:00.785Z,14.72
2022-09-17T01:32:37.101Z,14.73
2022-09-17T01:35:12.312Z,14.74
2022-09-17T01:37:50.282Z,14.73
2022-09-17T01:40:25.780Z,14.73
2022-09-17T01:43:00.450Z,14.74
2022-09-17T01:45:35.419Z,14.76
2022-09-17T01:48:12.528Z,14.75
2022-09-17T01:50:44.449Z,14.76
2022-09-17T01:53:14.730Z,14.77
2022-09-17T01:55:47.176Z,14.80
2022-09-17T01:58:20.824Z,14.80
2022-09-17T02:00:56.026Z,14.80
2022-09-17T02:03:31.046Z,14.83
2022-09-17T02:06:03.233Z,14.84
2022-09-17T02:08:37.573Z,14.83
2022-09-17T02:11:09.998Z,14.84
2022-09-17T02:13:43.669Z,14.82
2022-09-17T02:16:14.891Z,14.83
2022-09-17T02:18:51.162Z,14.83
2022-09-17T02:21:25.719Z,14.82
2022-09-17T02:24:04.398Z,14.82
2022-09-17T02:26:33.921Z,14.77
2022-09-17T02:29:07.977Z,14.75
2022-09-17T02:31:35.829Z,14.80
2022-09-17T02:34:06.690Z,14.77
2022-09-17T02:36:35.626Z,14.74
2022-09-17T02:39:05.611Z,14.76
2022-09-17T02:41:45.378Z,14.73
2022-09-17T02:44:22.932Z,14.72
2022-09-17T02:47:19.518Z,14.70
2022-09-17T02:50:16.966Z,14.71
2022-09-17T02:52:59.479Z,14.71
2022-09-17T02:55:33.955Z,14.76
2022-09-17T02:58:13.097Z,14.78
2022-09-17T03:00:41.604Z,14.78
2022-09-17T03:03:16.090Z,14.81
2022-09-17T03:05:45.628Z,14.83
2022-09-17T03:08:16.002Z,14.84
2022-09-17T03:10:43.714Z,14.84
2022-09-17T03:13:11.491Z,14.87
2022-09-17T03:15:39.666Z,14.88
2022-09-17T03:18:07.428Z,14.88
2022-09-17T03:20:35.670Z,14.88
2022-09-17T03:23:04.905Z,14.89
2022-09-17T03:25:32.649Z,14.87
2022-09-17T03:28:00.824Z,14.84
2022-09-17T03:30:28.616Z,14.81
2022-09-17T03:32:56.753Z,14.80
2022-09-17T03:35:25.167Z,14.78
2022-09-17T03:37:52.872Z,14.75
2022-09-17T03:40:22.461Z,14.72
2022-09-17T03:42:50.209Z,14.72
2022-09-17T03:45:18.421Z,14.70
2022-09-17T03:47:46.145Z,14.69
2022-09-17T03:50:13.934Z,14.67
2022-09-17T03:52:42.118Z,14.66
2022-09-17T03:55:11.047Z,14.65
2022-09-17T03:57:40.692Z,14.66
2022-09-17T04:00:09.360Z,14.65
2022-09-17T04:02:37.243Z,14.65
2022-09-17T04:05:06.352Z,14.60
2022-09-17T04:07:34.109Z,14.60
2022-09-17T04:10:03.018Z,14.58
2022-09-17T04:12:30.716Z,14.58
2022-09-17T04:14:59.838Z,14.56
2022-09-17T04:17:28.702Z,14.55
2022-09-17T04:19:56.410Z,14.54
2022-09-17T04:22:24.233Z,14.50
2022-09-17T04:24:52.424Z,14.49
2022-09-17T04:27:20.645Z,14.49
2022-09-17T04:29:48.377Z,14.49
2022-09-17T04:32:17.483Z,14.49
2022-09-17T04:34:45.628Z,14.48
2022-09-17T04:37:13.359Z,14.49
2022-09-17T04:39:41.101Z,14.48
2022-09-17T04:42:09.890Z,14.45
2022-09-17T04:44:37.614Z,14.42
2022-09-17T04:47:05.660Z,14.42
2022-09-17T04:49:34.776Z,14.42
2022-09-17T04:52:02.914Z,14.41
2022-09-17T04:54:31.198Z,14.41
2022-09-17T04:57:00.705Z,14.39
2022-09-17T04:59:28.934Z,14.41
2022-09-17T05:01:56.707Z,14.40
2022-09-17T05:04:24.791Z,14.38
2022-09-17T05:06:54.770Z,14.39
2022-09-17T05:09:22.511Z,14.36
2022-09-17T05:11:50.249Z,14.35
2022-09-17T05:14:18.465Z,14.35
2022-09-17T05:16:46.866Z,14.35
2022-09-17T05:19:15.063Z,14.36
2022-09-17T05:21:43.044Z,14.35
2022-09-17T05:24:12.350Z,14.36
2022-09-17T05:26:40.904Z,14.33
2022-09-17T05:29:08.760Z,14.34
2022-09-17T05:31:37.166Z,14.33
2022-09-17T05:34:05.243Z,14.33
2022-09-17T05:36:32.957Z,14.33
2022-09-17T05:39:01.866Z,14.33
2022-09-17T05:41:30.964Z,14.32
2022-09-17T05:43:59.173Z,14.34
2022-09-17T05:46:26.989Z,14.32
2022-09-17T05:48:56.768Z,14.36
2022-09-17T05:51:25.205Z,14.31
2022-09-17T05:53:55.346Z,14.34
2022-09-17T05:56:24.464Z,14.35
2022-09-17T05:58:56.678Z,14.36
2022-09-17T06:01:25.048Z,14.34
2022-09-17T06:03:53.783Z,14.34
2022-09-17T06:06:21.622Z,14.33
2022-09-17T06:08:49.838Z,14.35
2022-09-17T06:11:17.576Z,14.36
2022-09-17T06:13:45.945Z,14.37
2022-09-17T06:16:15.839Z,14.39
2022-09-17T06:18:43.578Z,14.40
2022-09-17T06:21:11.841Z,14.42
2022-09-17T06:23:40.007Z,14.44
2022-09-17T06:26:07.861Z,14.44
2022-09-17T06:28:41.215Z,14.48
2022-09-17T06:31:11.029Z,14.52
2022-09-17T06:33:40.996Z,14.54
2022-09-17T06:36:13.624Z,14.55
2022-09-17T06:38:42.875Z,14.57
2022-09-17T06:41:10.657Z,14.57
2022-09-17T06:43:38.522Z,14.58
2022-09-17T06:46:09.474Z,14.60
2022-09-17T06:48:38.379Z,14.60
2022-09-17T06:51:09.446Z,14.61
2022-09-17T06:53:38.114Z,14.62
2022-09-17T06:56:07.361Z,14.62
2022-09-17T06:58:37.391Z,14.63
2022-09-17T07:01:05.890Z,14.64
2022-09-17T07:03:34.608Z,14.64
2022-09-17T07:06:03.080Z,14.64
2022-09-17T07:08:34.411Z,14.68
2022-09-17T07:11:02.349Z,14.68
2022-09-17T07:13:30.313Z,14.70
2022-09-17T07:15:59.844Z,14.74
2022-09-17T07:18:28.288Z,14.75
2022-09-17T07:20:57.136Z,14.82
2022-09-17T07:23:25.542Z,14.83
2022-09-17T07:25:55.451Z,14.86
2022-09-17T07:28:23.955Z,14.85
2022-09-17T07:30:52.482Z,14.87
2022-09-17T07:33:23.370Z,14.88
2022-09-17T07:35:55.022Z,14.89
2022-09-17T07:38:23.365Z,14.88
2022-09-17T07:40:58.885Z,14.87
2022-09-17T07:43:27.463Z,14.84
2022-09-17T07:45:55.758Z,14.88
2022-09-17T07:48:24.197Z,14.91
2022-09-17T07:50:51.924Z,14.96
2022-09-17T07:53:20.091Z,15.02
2022-09-17T07:55:52.960Z,15.08
2022-09-17T07:58:23.009Z,15.11
2022-09-17T08:00:51.069Z,15.15
2022-09-17T08:03:18.832Z,15.18
2022-09-17T08:05:48.352Z,15.22
2022-09-17T08:08:20.908Z,15.28
2022-09-17T08:10:49.087Z,15.34
2022-09-17T08:13:16.823Z,15.39
2022-09-17T08:15:45.991Z,15.45
2022-09-17T08:18:16.663Z,15.49
2022-09-17T08:20:44.378Z,15.54
2022-09-17T08:23:12.685Z,15.48
2022-09-17T08:25:40.401Z,15.58
2022-09-17T08:28:08.260Z,15.57
2022-09-17T08:30:36.386Z,15.57
2022-09-17T08:33:05.482Z,15.57
2022-09-17T08:35:33.620Z,15.53
2022-09-17T08:38:01.712Z,15.56
2022-09-17T08:40:29.798Z,15.55
2022-09-17T08:43:02.461Z,15.59
2022-09-17T08:45:31.390Z,15.65
2022-09-17T08:48:05.067Z,15.72
2022-09-17T08:50:39.479Z,15.82
2022-09-17T08:53:29.296Z,15.95
2022-09-17T08:56:02.792Z,16.06
2022-09-17T08:58:42.254Z,16.12
2022-09-17T09:01:34.390Z,16.18
2022-09-17T09:04:33.577Z,16.25
2022-09-17T09:07:08.045Z,16.27
2022-09-17T09:09:39.084Z,16.29
2022-09-17T09:12:12.031Z,16.30
2022-09-17T09:14:47.514Z,16.33
2022-09-17T09:17:18.487Z,16.35
2022-09-17T09:19:47.709Z,16.36
2022-09-17T09:22:33.356Z,16.38
2022-09-17T09:25:09.426Z,16.39
2022-09-17T09:27:45.077Z,16.36
2022-09-17T09:30:14.952Z,16.34
2022-09-17T09:32:54.658Z,16.37
2022-09-17T09:35:24.820Z,16.37
2022-09-17T09:38:00.571Z,16.35
2022-09-17T09:40:37.091Z,16.36
2022-09-17T09:43:15.980Z,16.36
2022-09-17T09:46:08.785Z,16.32
2022-09-17T09:48:45.553Z,16.35
2022-09-17T09:51:27.161Z,16.36
2022-09-17T09:54:09.856Z,16.31
2022-09-17T09:56:53.127Z,16.35
2022-09-17T09:59:21.327Z,16.35
2022-09-17T10:01:49.428Z,16.31
2022-09-17T10:04:21.764Z,16.32
2022-09-17T10:06:52.456Z,16.36
2022-09-17T10:09:23.774Z,16.38
2022-09-17T10:12:02.402Z,16.43
2022-09-17T10:14:32.768Z,16.54
2022-09-17T10:17:29.195Z,16.61
2022-09-17T10:20:24.495Z,16.63
2022-09-17T10:22:52.392Z,16.67
2022-09-17T10:25:29.987Z,16.70
2022-09-17T10:28:00.591Z,16.72
2022-09-17T10:30:28.570Z,16.72
2022-09-17T10:33:13.851Z,16.74
2022-09-17T10:35:41.564Z,16.67
2022-09-17T10:38:29.186Z,16.60
2022-09-17T10:41:11.528Z,16.64
2022-09-17T10:43:39.510Z,16.64
2022-09-17T10:46:11.530Z,16.65
2022-09-17T10:48:43.104Z,16.63
2022-09-17T10:51:12.222Z,16.62
2022-09-17T10:54:07.324Z,16.64
2022-09-17T10:56:38.730Z,16.66
2022-09-17T10:59:24.564Z,16.71
2022-09-17T11:02:09.292Z,16.73
2022-09-17T11:04:49.760Z,16.79
2022-09-17T11:07:34.140Z,16.78
2022-09-17T11:10:10.867Z,16.80
2022-09-17T11:12:58.254Z,16.74
2022-09-17T11:15:37.013Z,16.76
2022-09-17T11:18:34.075Z,16.76
2022-09-17T11:21:17.552Z,16.75
2022-09-17T11:24:15.556Z,16.77
2022-09-17T11:26:47.439Z,16.73
2022-09-17T11:29:37.697Z,16.73
2022-09-17T11:32:16.369Z,16.71
2022-09-17T11:34:48.672Z,16.68
2022-09-17T11:37:23.709Z,16.60
2022-09-17T11:39:57.674Z,16.60
2022-09-17T11:42:30.609Z,16.53
2022-09-17T11:45:03.801Z,16.44
2022-09-17T11:47:35.780Z,16.48
2022-09-17T11:50:12.298Z,16.48
2022-09-17T11:52:46.954Z,16.51
2022-09-17T11:55:21.937Z,16.57
2022-09-17T11:57:56.284Z,16.59
2022-09-17T12:00:25.542Z,16.57
2022-09-17T12:02:58.892Z,16.66
2022-09-17T12:05:30.295Z,16.72
2022-09-17T12:08:10.227Z,16.78
2022-09-17T12:10:46.967Z,16.85
2022-09-17T12:13:23.287Z,16.91
2022-09-17T12:15:57.310Z,16.95
2022-09-17T12:18:39.928Z,17.03
2022-09-17T12:21:10.751Z,17.13
2022-09-17T12:23:44.250Z,17.19
2022-09-17T12:26:25.983Z,17.28
2022-09-17T12:29:02.102Z,17.31
2022-09-17T12:31:37.543Z,17.38
2022-09-17T12:34:11.790Z,17.43
2022-09-17T12:36:51.274Z,17.53
2022-09-17T12:40:03.434Z,17.54
2022-09-17T12:42:52.633Z,17.56
2022-09-17T12:45:36.123Z,17.52
2022-09-17T12:48:43.535Z,17.51
2022-09-17T12:51:21.111Z,17.48
2022-09-17T12:54:01.446Z,17.48
2022-09-17T12:56:44.162Z,17.46
2022-09-17T12:59:15.839Z,17.40
2022-09-17T13:01:53.515Z,17.35
2022-09-17T13:05:07.289Z,17.34
2022-09-17T13:08:06.933Z,17.33
2022-09-17T13:11:08.133Z,17.32
2022-09-17T13:13:43.231Z,17.25
2022-09-17T13:16:20.074Z,17.21
2022-09-17T13:19:16.484Z,17.15
2022-09-17T13:21:54.463Z,17.06
2022-09-17T13:24:25.624Z,16.96
2022-09-17T13:26:55.019Z,16.92
2022-09-17T13:29:59.514Z,16.87
2022-09-17T13:32:47.109Z,16.81
2022-09-17T13:35:49.314Z,16.79
2022-09-17T13:38:23.693Z,16.77
2022-09-17T13:40:52.524Z,16.75
2022-09-17T13:43:26.928Z,16.75
2022-09-17T13:46:14.576Z,16.78
2022-09-17T13:48:50.286Z,16.80
2022-09-17T13:51:53.539Z,16.81
2022-09-17T13:54:25.698Z,16.89
2022-09-17T13:57:09.759Z,16.94
2022-09-17T13:59:38.993Z,17.02
2022-09-17T14:02:36.589Z,17.08
2022-09-17T14:05:30.803Z,17.15
2022-09-17T14:08:30.837Z,17.23
2022-09-17T14:11:03.060Z,17.25
2022-09-17T14:13:45.042Z,17.32
2022-09-17T14:16:47.364Z,17.40
2022-09-17T14:19:51.007Z,17.42
2022-09-17T14:22:26.046Z,17.39
2022-09-17T14:24:55.846Z,17.32
2022-09-17T14:27:47.736Z,17.44
2022-09-17T14:30:19.909Z,17.44
2022-09-17T14:33:00.107Z,17.50
2022-09-17T14:35:33.203Z,17.53
2022-09-17T14:38:04.085Z,17.54
2022-09-17T14:40:35.740Z,17.50
2022-09-17T14:43:05.153Z,17.46
2022-09-17T14:45:34.734Z,17.45
2022-09-17T14:48:37.492Z,17.40
2022-09-17T14:51:30.676Z,17.35
2022-09-17T14:54:19.835Z,17.26
2022-09-17T14:56:56.466Z,17.19
2022-09-17T14:59:31.496Z,17.09
2022-09-17T15:04:48.153Z,17.01
2022-09-17T15:07:16.524Z,16.96
2022-09-17T15:09:44.270Z,16.93
2022-09-17T15:12:18.794Z,16.91
2022-09-17T15:14:49.515Z,16.89
2022-09-17T15:17:20.547Z,16.88
2022-09-17T15:19:51.500Z,16.89
2022-09-17T15:22:24.047Z,16.90
2022-09-17T15:24:56.973Z,16.90
2022-09-17T15:27:30.518Z,16.88
2022-09-17T15:30:04.197Z,16.88
2022-09-17T15:32:33.950Z,16.86
2022-09-17T15:35:19.672Z,16.86
2022-09-17T15:38:18.509Z,16.80
2022-09-17T15:40:41.366Z,16.79
2022-09-17T15:43:18.525Z,16.77
2022-09-17T15:45:48.330Z,16.74
2022-09-17T15:48:26.021Z,16.75
2022-09-17T15:50:56.442Z,16.73
2022-09-17T15:53:27.095Z,16.73
2022-09-17T15:56:07.733Z,16.72
2022-09-17T15:58:52.595Z,16.72
2022-09-17T16:01:56.760Z,16.70
2022-09-17T16:04:32.066Z,16.71
2022-09-17T16:07:30.358Z,16.64
2022-09-17T16:09:59.981Z,16.66
2022-09-17T16:12:30.371Z,16.66
2022-09-17T16:15:00.822Z,16.60
2022-09-17T16:17:36.229Z,16.57
2022-09-17T16:20:10.989Z,16.61
2022-09-17T16:22:39.185Z,16.60
2022-09-17T16:25:07.806Z,16.60
2022-09-17T16:27:50.866Z,16.55
2022-09-17T16:30:21.665Z,16.57
2022-09-17T16:32:50.149Z,16.58
2022-09-17T16:35:21.281Z,16.60
2022-09-17T16:37:50.692Z,16.56
2022-09-17T16:40:19.036Z,16.61
2022-09-17T16:42:48.354Z,16.62
2022-09-17T16:45:17.253Z,16.58
2022-09-17T16:47:45.083Z,16.63
2022-09-17T16:50:16.480Z,16.61
2022-09-17T16:52:46.811Z,16.57
2022-09-17T16:55:17.375Z,16.60
2022-09-17T16:57:45.226Z,16.57
2022-09-17T17:00:16.975Z,16.60
2022-09-17T17:02:45.400Z,16.57
2022-09-17T17:05:13.200Z,16.55
2022-09-17T17:07:41.353Z,16.53
2022-09-17T17:10:11.934Z,16.54
2022-09-17T17:12:39.673Z,16.53
2022-09-17T17:15:09.615Z,16.49
2022-09-17T17:17:37.906Z,16.45
2022-09-17T17:20:08.395Z,16.44
2022-09-17T17:22:37.502Z,16.44
2022-09-17T17:25:06.114Z,16.44
2022-09-17T17:27:36.317Z,16.44
2022-09-17T17:30:09.255Z,16.43
2022-09-17T17:32:38.613Z,16.37
2022-09-17T17:35:07.829Z,16.36
2022-09-17T17:37:35.572Z,16.36
2022-09-17T17:40:08.365Z,16.33
2022-09-17T17:42:39.955Z,16.31
2022-09-17T17:45:09.208Z,16.30
2022-09-17T17:47:37.963Z,16.30
2022-09-17T17:50:06.641Z,16.29
2022-09-17T17:52:34.988Z,16.26
2022-09-17T17:55:02.850Z,16.23
2022-09-17T17:57:30.760Z,16.21
2022-09-17T18:00:00.749Z,16.21
2022-09-17T18:02:29.180Z,16.16
2022-09-17T18:05:00.782Z,16.18
2022-09-17T18:07:32.086Z,16.14
2022-09-17T18:10:00.996Z,16.08
2022-09-17T18:12:29.344Z,16.06
2022-09-17T18:14:58.862Z,16.09
2022-09-17T18:17:32.041Z,16.05
2022-09-17T18:20:00.042Z,16.04
2022-09-17T18:22:28.426Z,16.01
2022-09-17T18:24:56.199Z,16.00
2022-09-17T18:27:24.370Z,15.98
2022-09-17T18:29:52.117Z,15.98
2022-09-17T18:32:19.861Z,15.99
2022-09-17T18:34:51.165Z,16.01
2022-09-17T18:37:19.863Z,16.00
2022-09-17T18:40:04.909Z,16.00
2022-09-17T18:42:33.529Z,16.00
2022-09-17T18:45:01.757Z,16.00
2022-09-17T18:47:29.856Z,15.99
2022-09-17T18:49:59.765Z,15.99
2022-09-17T18:52:28.290Z,15.97
2022-09-17T18:54:56.437Z,15.97
2022-09-17T18:57:24.162Z,15.94
2022-09-17T18:59:52.569Z,15.92
2022-09-17T19:02:20.960Z,15.92
2022-09-17T19:04:48.993Z,15.89
2022-09-17T19:07:18.592Z,15.89
2022-09-17T19:09:47.956Z,15.88
2022-09-17T19:12:15.772Z,15.86
2022-09-17T19:14:44.170Z,15.86
2022-09-17T19:17:12.326Z,15.87
2022-09-17T19:19:40.103Z,15.88
2022-09-17T19:22:08.360Z,15.88
2022-09-17T19:24:38.828Z,15.90
2022-09-17T19:27:07.586Z,15.90
2022-09-17T19:29:35.844Z,15.88
2022-09-17T19:32:04.044Z,15.88
2022-09-17T19:34:31.924Z,15.90
2022-09-17T19:36:59.800Z,15.89
2022-09-17T19:39:28.101Z,15.92
2022-09-17T19:41:57.216Z,15.93
2022-09-17T19:44:25.205Z,15.94
2022-09-17T19:46:53.716Z,15.93
2022-09-17T19:49:21.553Z,15.93
2022-09-17T19:51:49.759Z,15.92
2022-09-17T19:54:17.481Z,15.92
2022-09-17T19:56:45.416Z,15.92
2022-09-17T19:59:15.235Z,15.94
2022-09-17T20:01:49.244Z,15.92
2022-09-17T20:04:20.429Z,15.93
2022-09-17T20:06:48.144Z,15.92
2022-09-17T20:09:15.909Z,15.92
2022-09-17T20:11:44.034Z,15.91
2022-09-17T20:14:12.709Z,15.89
2022-09-17T20:16:43.907Z,15.88
2022-09-17T20:19:15.370Z,15.91
2022-09-17T20:21:43.191Z,15.89
2022-09-17T20:24:11.480Z,15.89
2022-09-17T20:26:39.246Z,15.90
2022-09-17T20:29:07.025Z,15.89
2022-09-17T20:31:35.033Z,15.90
2022-09-17T20:36:36.093Z,15.89
2022-09-17T20:39:18.188Z,15.89
2022-09-17T20:41:47.831Z,15.88
2022-09-17T20:44:15.652Z,15.88
2022-09-17T20:46:43.463Z,15.86
2022-09-17T20:49:12.910Z,15.85
2022-09-17T20:51:40.638Z,15.85
2022-09-17T20:54:08.658Z,15.83
2022-09-17T20:56:37.372Z,15.83
2022-09-17T20:59:15.097Z,15.84
2022-09-17T21:01:45.020Z,15.82
2022-09-17T21:04:16.807Z,15.84
2022-09-17T21:06:45.533Z,15.84
2022-09-17T21:09:16.747Z,15.85
2022-09-17T21:11:45.204Z,15.85
2022-09-17T21:14:15.255Z,15.87
2022-09-17T21:16:43.074Z,15.87
2022-09-17T21:19:16.544Z,15.89
2022-09-17T21:21:44.842Z,15.89
2022-09-17T21:24:12.860Z,15.92
2022-09-17T21:26:40.995Z,15.92
2022-09-17T21:29:08.921Z,15.92
2022-09-17T21:31:38.168Z,15.92
2022-09-17T21:34:08.345Z,15.92
2022-09-17T21:36:39.336Z,15.93
2022-09-17T21:39:10.902Z,15.91
2022-09-17T21:41:42.547Z,15.89
2022-09-17T21:44:11.252Z,15.87
2022-09-17T21:46:41.084Z,15.86
2022-09-17T21:49:09.320Z,15.76
2022-09-17T21:51:39.891Z,15.80
2022-09-17T21:54:10.016Z,15.76
2022-09-17T21:56:38.576Z,15.75
2022-09-17T21:59:08.691Z,15.72
2022-09-17T22:01:40.280Z,15.73
2022-09-17T22:04:09.402Z,15.71
2022-09-17T22:06:39.079Z,15.72
2022-09-17T22:09:08.985Z,15.70
2022-09-17T22:11:38.368Z,15.67
2022-09-17T22:14:09.484Z,15.67
2022-09-17T22:16:40.025Z,15.65
2022-09-17T22:19:09.247Z,15.63
2022-09-17T22:21:40.766Z,15.61
2022-09-17T22:24:09.169Z,15.58
2022-09-17T22:26:40.164Z,15.59
2022-09-17T22:29:09.447Z,15.59
2022-09-17T22:31:37.491Z,15.57
2022-09-17T22:34:09.102Z,15.59
2022-09-17T22:36:38.684Z,15.59
2022-09-17T22:39:07.087Z,15.55
2022-09-17T22:41:37.172Z,15.55
2022-09-17T22:44:06.307Z,15.53
2022-09-17T22:46:35.980Z,15.57
2022-09-17T22:49:04.047Z,15.57
2022-09-17T22:51:33.193Z,15.57
2022-09-17T22:54:02.906Z,15.58
2022-09-17T22:56:31.608Z,15.54
2022-09-17T22:59:00.260Z,15.52
2022-09-17T23:01:30.002Z,15.51
2022-09-17T23:03:59.602Z,15.50
2022-09-17T23:06:29.552Z,15.50
2022-09-17T23:08:57.901Z,15.49
2022-09-17T23:11:28.840Z,15.46
2022-09-17T23:13:58.836Z,15.48
2022-09-17T23:16:27.113Z,15.47
2022-09-17T23:18:55.292Z,15.47
2022-09-17T23:21:23.294Z,15.49
2022-09-17T23:23:53.459Z,15.49
2022-09-17T23:26:24.815Z,15.47
2022-09-17T23:28:54.540Z,15.46
2022-09-17T23:31:24.482Z,15.44
2022-09-17T23:33:53.340Z,15.42
2022-09-17T23:36:22.778Z,15.42
2022-09-17T23:38:52.125Z,15.39
2022-09-17T23:41:22.155Z,15.37
2022-09-17T23:43:52.526Z,15.35
2022-09-17T23:46:23.788Z,15.34
2022-09-17T23:48:53.769Z,15.31
2022-09-17T23:51:22.341Z,15.32
2022-09-17T23:53:50.400Z,15.16
2022-09-17T23:56:21.681Z,15.28
2022-09-17T23:58:50.499Z,15.26
